Darstellungsparameter: Aktuell verwendete Einstellungen:
Skalierung der Graphiken ... ?
xyx+y,   Skalierungsfaktor:      Skalierung: Modus: x, Faktor: 1
Darstellungszeitraum ... ?
Vom - - bis: - -   Zeitraum: 10.06.2011 - 11.06.2011
Min/Max/Avg-Anzeige ... ?
Zeige MMA aktuell
Zeige MMA Monat
Zeige MMA alles
Zeige --A aktuell
Zeige --A Monat
Zeige --A alles
Keine MMA-Anzeige
MMA:
Keine MMA-Graphiken
MMA-Basis: 10.06.2011 - 11.06.2011
Quicknavigation für Darstellung... ?
Tage:      1T, 2T, 3T, 5T -1T -2T -3T -5T +1T +2T +3T +5T
Wochen: 1W, 2W, 3W -1W -2W -3W +1W +2W +3W
Monate: 1M, 3M, 6M -1M -3M -6M +1M +3M +6M
Jahre:    1J, 3J, 5J, 10J -1J -3J -5J -10J +1J +3J +5J +10J
Nutze für die Darstellung ... ?
Originaldaten oder Mittelwerte auf ...
Stundenbasis Tagesbasis Wochenbasis
Monatsbasis Jahresbasis      Datenbasis: Original-Daten
Darstellen als:
Statistik (Auto) Statistik J:M      Darstellung:
Zur Graphik,    zurück zur Übersicht aller Sensoren.
 
Tabellarische Datenbersicht: ?
 
Sensor: Nr:Datum:Temp:Abs-Feuchte:Windchill:Wind:
Aussen-T/F 1 10-06-2011 00:11:03 11.4 C 8.93 g/m*3 11.4 C 0 km/h
2 10-06-2011 00:23:03 11.4 C 8.93 g/m*3 11.4 C 0 km/h
3 10-06-2011 00:35:03 11.4 C 8.93 g/m*3 11.4 C 0 km/h
4 10-06-2011 00:47:04 11.4 C 8.93 g/m*3 11.4 C 0 km/h
5 10-06-2011 00:59:04 11.4 C 8.93 g/m*3 11.4 C 0 km/h
6 10-06-2011 01:11:04 11.4 C 8.93 g/m*3 11.4 C 0 km/h
7 10-06-2011 01:23:04 11.4 C 8.93 g/m*3 11.4 C 0 km/h
8 10-06-2011 01:35:04 11.4 C 8.93 g/m*3 11.4 C 0 km/h
9 10-06-2011 01:47:04 11.4 C 8.93 g/m*3 11.4 C 0 km/h
10 10-06-2011 01:59:04 11.4 C 8.93 g/m*3 11.4 C 0 km/h
11 10-06-2011 02:11:04 11.4 C 8.93 g/m*3 11.4 C 0 km/h
12 10-06-2011 02:23:04 11.4 C 8.93 g/m*3 11.4 C 0 km/h
13 10-06-2011 02:35:04 11.4 C 8.93 g/m*3 11.4 C 0 km/h
14 10-06-2011 02:47:04 11.4 C 8.93 g/m*3 11.4 C 0 km/h
15 10-06-2011 02:59:04 11.4 C 8.93 g/m*3 11.4 C 0 km/h
16 10-06-2011 03:11:04 11.4 C 8.93 g/m*3 11.4 C 0 km/h
17 10-06-2011 03:23:04 11.4 C 8.93 g/m*3 11.4 C 0 km/h
18 10-06-2011 03:35:04 11.4 C 8.93 g/m*3 11.4 C 0 km/h
19 10-06-2011 03:47:04 11.4 C 8.93 g/m*3 11.4 C 0 km/h
20 10-06-2011 03:59:04 11.4 C 8.93 g/m*3 11.4 C 0 km/h
21 10-06-2011 04:11:04 11.4 C 8.93 g/m*3 11.4 C 0 km/h
22 10-06-2011 04:23:04 11.4 C 8.93 g/m*3 11.4 C 0 km/h
23 10-06-2011 04:35:04 11.4 C 8.93 g/m*3 11.4 C 0 km/h
24 10-06-2011 04:47:04 11.4 C 8.93 g/m*3 11.4 C 0 km/h
25 10-06-2011 04:59:05 11.4 C 8.93 g/m*3 11.4 C 0 km/h
Sensor: Nr:Datum:Temp:Abs-Feuchte:Windchill:Wind:
Aussen-T/F 26 10-06-2011 05:11:05 11.4 C 8.93 g/m*3 11.4 C 0 km/h
27 10-06-2011 05:23:05 11.4 C 8.93 g/m*3 11.4 C 0 km/h
28 10-06-2011 05:35:05 11.4 C 8.93 g/m*3 11.4 C 0 km/h
29 10-06-2011 05:47:05 11.4 C 8.93 g/m*3 11.4 C 0 km/h
30 10-06-2011 05:59:05 11.4 C 8.93 g/m*3 11.4 C 0 km/h
31 10-06-2011 06:11:05 11.4 C 8.93 g/m*3 11.4 C 0 km/h
32 10-06-2011 06:23:05 11.4 C 8.93 g/m*3 11.4 C 0 km/h
33 10-06-2011 06:35:03 11.5 C 9.09 g/m*3 11.5 C 0 km/h
34 10-06-2011 06:47:02 11.8 C 9.26 g/m*3 11.8 C 0 km/h
35 10-06-2011 06:59:02 12 C 9.27 g/m*3 12 C 0 km/h
36 10-06-2011 07:11:03 12.1 C 9.33 g/m*3 12.1 C 0 km/h
37 10-06-2011 07:23:02 12.5 C 9.46 g/m*3 12.5 C 0 km/h
38 10-06-2011 07:35:02 12.5 C 9.46 g/m*3 12.5 C 0 km/h
39 10-06-2011 07:47:01 13 C 9.07 g/m*3 13 C 0 km/h
40 10-06-2011 07:59:01 13 C 9.07 g/m*3 13 C 0 km/h
41 10-06-2011 08:11:02 13 C 9.07 g/m*3 13 C 0 km/h
42 10-06-2011 08:23:01 13 C 9.07 g/m*3 13 C 0 km/h
43 10-06-2011 08:35:02 13 C 9.07 g/m*3 13 C 0 km/h
44 10-06-2011 08:47:02 13 C 9.07 g/m*3 13 C 0 km/h
45 10-06-2011 08:59:02 13 C 9.07 g/m*3 13 C 0 km/h
46 10-06-2011 09:11:02 13 C 9.07 g/m*3 13 C 0 km/h
47 10-06-2011 09:23:01 13 C 9.07 g/m*3 13 C 0 km/h
48 10-06-2011 09:35:02 13 C 9.07 g/m*3 13 C 0 km/h
49 10-06-2011 09:47:02 13 C 9.07 g/m*3 13 C 0 km/h
50 10-06-2011 09:59:02 13 C 9.07 g/m*3 13 C 0 km/h
Sensor: Nr:Datum:Temp:Abs-Feuchte:Windchill:Wind:
Aussen-T/F 51 10-06-2011 10:11:02 13 C 9.07 g/m*3 13 C 0 km/h
52 10-06-2011 10:23:01 13 C 9.07 g/m*3 13 C 0 km/h
53 10-06-2011 10:35:02 13 C 9.07 g/m*3 13 C 0 km/h
54 10-06-2011 10:47:01 13 C 9.07 g/m*3 13 C 0 km/h
55 10-06-2011 10:59:01 13 C 9.07 g/m*3 13 C 0 km/h
56 10-06-2011 11:11:02 13 C 9.07 g/m*3 13 C 0 km/h
57 10-06-2011 11:23:02 13 C 9.07 g/m*3 13 C 0 km/h
58 10-06-2011 11:35:02 13 C 9.07 g/m*3 13 C 0 km/h
59 10-06-2011 11:47:01 13 C 9.07 g/m*3 13 C 0 km/h
60 10-06-2011 11:59:01 13 C 9.07 g/m*3 13 C 0 km/h
61 10-06-2011 12:11:02 13 C 9.07 g/m*3 13 C 0 km/h
62 10-06-2011 12:23:02 13 C 9.07 g/m*3 13 C 0 km/h
63 10-06-2011 12:35:01 13 C 9.07 g/m*3 13 C 0 km/h
64 10-06-2011 12:47:02 13 C 9.07 g/m*3 13 C 0 km/h
65 10-06-2011 12:59:02 13 C 9.07 g/m*3 13 C 0 km/h
66 10-06-2011 13:11:01 13 C 9.07 g/m*3 13 C 0 km/h
67 10-06-2011 13:23:02 13 C 9.07 g/m*3 13 C 0 km/h
68 10-06-2011 13:35:01 13 C 9.07 g/m*3 13 C 0 km/h
69 10-06-2011 13:47:02 13 C 9.07 g/m*3 13 C 0 km/h
70 10-06-2011 13:59:02 13 C 9.07 g/m*3 13 C 0 km/h
71 10-06-2011 14:11:01 13 C 9.07 g/m*3 13 C 0 km/h
72 10-06-2011 14:23:01 13 C 9.07 g/m*3 13 C 0 km/h
73 10-06-2011 14:35:01 13 C 9.07 g/m*3 13 C 0 km/h
74 10-06-2011 14:47:02 13 C 9.07 g/m*3 13 C 0 km/h
75 10-06-2011 14:59:02 13 C 9.07 g/m*3 13 C 0 km/h
Sensor: Nr:Datum:Temp:Abs-Feuchte:Windchill:Wind:
Aussen-T/F 76 10-06-2011 15:11:02 13 C 9.07 g/m*3 13 C 0 km/h
77 10-06-2011 15:23:02 21.5 C 6.03 g/m*3 21.5 C 0 km/h
78 10-06-2011 15:35:02 21.7 C 5.91 g/m*3 21.7 C 0 km/h
79 10-06-2011 15:47:02 22 C 5.43 g/m*3 22 C 0 km/h
80 10-06-2011 15:59:02 24.1 C 5.69 g/m*3 24.1 C 0 km/h
81 10-06-2011 16:11:02 26.7 C 5.06 g/m*3 26.7 C 0 km/h
82 10-06-2011 16:23:02 27 C 5.15 g/m*3 27 C 0 km/h
83 10-06-2011 16:35:01 24 C 4.35 g/m*3 24 C 0 km/h
84 10-06-2011 16:47:03 27.6 C 5.32 g/m*3 27.6 C 0 km/h
85 10-06-2011 16:59:03 26.3 C 4.95 g/m*3 26.3 C 0 km/h
86 10-06-2011 17:11:03 23.3 C 4.39 g/m*3 23.3 C 0 km/h
87 10-06-2011 17:23:02 22.5 C 4.79 g/m*3 22.5 C 0 km/h
88 10-06-2011 17:35:02 22.5 C 4.79 g/m*3 22.5 C 0 km/h
89 10-06-2011 17:47:02 20.6 C 6.62 g/m*3 20.6 C 0 km/h
90 10-06-2011 17:59:02 19.3 C 7.63 g/m*3 19.3 C 0 km/h
91 10-06-2011 18:11:01 18.8 C 7.57 g/m*3 18.8 C 0 km/h
92 10-06-2011 18:23:01 18.1 C 6.18 g/m*3 18.1 C 0 km/h
93 10-06-2011 18:35:02 18.2 C 6.53 g/m*3 18.2 C 0 km/h
94 10-06-2011 18:47:02 18.2 C 6.53 g/m*3 18.2 C 0 km/h
95 10-06-2011 18:59:02 18.2 C 6.53 g/m*3 18.2 C 0 km/h
96 10-06-2011 19:11:02 18.2 C 6.53 g/m*3 18.2 C 0 km/h
97 10-06-2011 19:23:02 18.2 C 7.77 g/m*3 18.2 C 0 km/h
98 10-06-2011 19:35:02 18.2 C 7.77 g/m*3 18.2 C 0 km/h
99 10-06-2011 19:47:02 18.2 C 7.77 g/m*3 18.2 C 0 km/h
100 10-06-2011 19:59:02 18.2 C 7.77 g/m*3 18.2 C 0 km/h
Sensor: Nr:Datum:Temp:Abs-Feuchte:Windchill:Wind:
Aussen-T/F 101 10-06-2011 20:11:02 18.2 C 7.77 g/m*3 18.2 C 0 km/h
102 10-06-2011 20:23:02 18.2 C 7.77 g/m*3 18.2 C 0 km/h
103 10-06-2011 20:35:02 18.2 C 7.77 g/m*3 18.2 C 0 km/h
104 10-06-2011 20:47:01 18.2 C 7.77 g/m*3 18.2 C 0 km/h
105 10-06-2011 20:59:01 18.2 C 7.77 g/m*3 18.2 C 0 km/h
106 10-06-2011 21:11:01 18.2 C 7.77 g/m*3 18.2 C 0 km/h
107 10-06-2011 21:23:01 18.2 C 7.77 g/m*3 18.2 C 0 km/h
108 10-06-2011 21:35:01 14.3 C 8.72 g/m*3 14.3 C 0 km/h
109 10-06-2011 21:47:01 14.3 C 8.72 g/m*3 14.3 C 0 km/h
110 10-06-2011 21:59:01 14.3 C 8.72 g/m*3 14.3 C 0 km/h
111 10-06-2011 22:11:02 14.4 C 8.9 g/m*3 14.4 C 0 km/h
112 10-06-2011 22:24:03 14.4 C 8.9 g/m*3 14.4 C 0 km/h
113 10-06-2011 22:36:03 14.4 C 8.9 g/m*3 14.4 C 0 km/h
114 10-06-2011 22:48:03 14.4 C 8.9 g/m*3 14.4 C 0 km/h
115 10-06-2011 23:00:03 14.4 C 8.9 g/m*3 14.4 C 0 km/h
116 10-06-2011 23:12:03 14.4 C 8.9 g/m*3 14.4 C 0 km/h
117 10-06-2011 23:24:03 14.4 C 8.9 g/m*3 14.4 C 0 km/h
118 10-06-2011 23:36:03 15.1 C 7.87 g/m*3 15.1 C 0 km/h
119 10-06-2011 23:48:03 15.1 C 7.87 g/m*3 15.1 C 0 km/h
120 11-06-2011 00:00:03 15.1 C 7.87 g/m*3 15.1 C 0 km/h
121 11-06-2011 00:12:03 12.6 C 9.07 g/m*3 12.6 C 0 km/h
122 11-06-2011 00:24:03 12.6 C 9.07 g/m*3 12.6 C 0 km/h
123 11-06-2011 00:36:03 12.6 C 9.07 g/m*3 12.6 C 0 km/h
124 11-06-2011 00:48:03 12.6 C 9.07 g/m*3 12.6 C 0 km/h
125 11-06-2011 01:00:03 12.6 C 9.07 g/m*3 12.6 C 0 km/h
Sensor: Nr:Datum:Temp:Abs-Feuchte:Windchill:Wind:
Aussen-T/F 126 11-06-2011 01:12:03 12.6 C 9.07 g/m*3 12.6 C 0 km/h
127 11-06-2011 01:24:03 12.6 C 9.07 g/m*3 12.6 C 0 km/h
128 11-06-2011 01:36:04 12.6 C 9.07 g/m*3 12.6 C 0 km/h
129 11-06-2011 01:48:04 12.6 C 9.07 g/m*3 12.6 C 0 km/h
130 11-06-2011 02:00:04 12.6 C 9.07 g/m*3 12.6 C 0 km/h
131 11-06-2011 02:12:04 12.6 C 9.07 g/m*3 12.6 C 0 km/h
132 11-06-2011 02:24:04 12.6 C 9.07 g/m*3 12.6 C 0 km/h
133 11-06-2011 02:36:04 12.6 C 9.07 g/m*3 12.6 C 0 km/h
134 11-06-2011 02:48:04 12.6 C 9.07 g/m*3 12.6 C 0 km/h
135 11-06-2011 03:00:04 12.6 C 9.07 g/m*3 12.6 C 0 km/h
136 11-06-2011 03:12:04 12.6 C 9.07 g/m*3 12.6 C 0 km/h
137 11-06-2011 03:24:04 12.6 C 9.07 g/m*3 12.6 C 0 km/h
138 11-06-2011 03:36:04 12.6 C 9.07 g/m*3 12.6 C 0 km/h
139 11-06-2011 03:48:04 12.6 C 9.07 g/m*3 12.6 C 0 km/h
140 11-06-2011 04:00:04 12.6 C 9.07 g/m*3 12.6 C 0 km/h
141 11-06-2011 04:12:04 12.6 C 9.07 g/m*3 12.6 C 0 km/h
142 11-06-2011 04:24:04 12.6 C 9.07 g/m*3 12.6 C 0 km/h
143 11-06-2011 04:36:04 12.6 C 9.07 g/m*3 12.6 C 0 km/h
144 11-06-2011 04:48:04 12.6 C 9.07 g/m*3 12.6 C 0 km/h
145 11-06-2011 05:00:04 12.6 C 9.07 g/m*3 12.6 C 0 km/h
146 11-06-2011 05:12:04 12.6 C 9.07 g/m*3 12.6 C 0 km/h
147 11-06-2011 05:24:04 12.6 C 9.07 g/m*3 12.6 C 0 km/h
148 11-06-2011 05:36:04 12.6 C 9.07 g/m*3 12.6 C 0 km/h
149 11-06-2011 05:48:05 12.6 C 9.07 g/m*3 12.6 C 0 km/h
150 11-06-2011 06:00:05 12.6 C 9.07 g/m*3 12.6 C 0 km/h
Sensor: Nr:Datum:Temp:Abs-Feuchte:Windchill:Wind:
Aussen-T/F 151 11-06-2011 06:12:05 12.6 C 9.07 g/m*3 12.6 C 0 km/h
152 11-06-2011 06:24:05 12.6 C 9.07 g/m*3 12.6 C 0 km/h
153 11-06-2011 06:36:05 12.6 C 9.07 g/m*3 12.6 C 0 km/h
154 11-06-2011 06:48:05 12.6 C 9.07 g/m*3 12.6 C 0 km/h
155 11-06-2011 07:00:05 12.6 C 9.07 g/m*3 12.6 C 0 km/h
156 11-06-2011 07:12:05 12.6 C 9.07 g/m*3 12.6 C 0 km/h
157 11-06-2011 07:24:05 10 C 8.36 g/m*3 10 C 0 km/h
158 11-06-2011 07:36:05 10.5 C 8.73 g/m*3 10.5 C 0 km/h
159 11-06-2011 07:48:02 11.2 C 9.02 g/m*3 11.2 C 0 km/h
160 11-06-2011 08:00:02 10.8 C 8.8 g/m*3 10.8 C 0 km/h
161 11-06-2011 08:12:02 10.8 C 8.8 g/m*3 10.8 C 0 km/h
162 11-06-2011 08:24:02 12.2 C 9.39 g/m*3 12.2 C 0 km/h
163 11-06-2011 08:36:01 11.9 C 8.9 g/m*3 11.9 C 0 km/h
164 11-06-2011 08:48:02 11.9 C 8.9 g/m*3 11.9 C 0 km/h
165 11-06-2011 09:00:02 11.9 C 8.9 g/m*3 11.9 C 0 km/h
166 11-06-2011 09:12:01 11.9 C 8.9 g/m*3 11.9 C 0 km/h
167 11-06-2011 09:24:02 13.4 C 7.32 g/m*3 13.4 C 0 km/h
168 11-06-2011 09:36:01 13.1 C 6.96 g/m*3 13.1 C 0 km/h
169 11-06-2011 09:48:03 13.5 C 7.49 g/m*3 13.5 C 0 km/h
170 11-06-2011 10:00:03 13.6 C 7.3 g/m*3 13.6 C 0 km/h
171 11-06-2011 10:12:02 13.6 C 7.3 g/m*3 13.6 C 0 km/h
172 11-06-2011 10:24:02 13.6 C 7.3 g/m*3 13.6 C 0 km/h
173 11-06-2011 10:36:02 13.6 C 7.3 g/m*3 13.6 C 0 km/h
174 11-06-2011 10:48:02 13.6 C 7.3 g/m*3 13.6 C 0 km/h
175 11-06-2011 11:00:02 13.6 C 7.3 g/m*3 13.6 C 0 km/h
Sensor: Nr:Datum:Temp:Abs-Feuchte:Windchill:Wind:
Aussen-T/F 176 11-06-2011 11:12:01 13.6 C 7.3 g/m*3 13.6 C 0 km/h
177 11-06-2011 11:24:02 13.6 C 7.3 g/m*3 13.6 C 0 km/h
178 11-06-2011 11:36:02 13.6 C 7.3 g/m*3 13.6 C 0 km/h
179 11-06-2011 11:48:01 13.6 C 7.3 g/m*3 13.6 C 0 km/h
180 11-06-2011 12:00:01 13.6 C 7.3 g/m*3 13.6 C 0 km/h
181 11-06-2011 12:12:01 13.6 C 7.3 g/m*3 13.6 C 0 km/h
182 11-06-2011 12:24:01 13.6 C 7.3 g/m*3 13.6 C 0 km/h
183 11-06-2011 12:36:02 13.6 C 7.3 g/m*3 13.6 C 0 km/h
184 11-06-2011 12:48:02 13.6 C 7.3 g/m*3 13.6 C 0 km/h
185 11-06-2011 13:00:02 17.8 C 5.01 g/m*3 17.8 C 0 km/h
186 11-06-2011 13:12:02 17.8 C 4.71 g/m*3 17.8 C 0 km/h
187 11-06-2011 13:24:01 21.4 C 5.44 g/m*3 21.4 C 0 km/h
188 11-06-2011 13:36:02 22.7 C 4.24 g/m*3 22.7 C 0 km/h
189 11-06-2011 13:48:02 20.2 C 4.9 g/m*3 20.2 C 0 km/h
190 11-06-2011 14:00:02 20.3 C 5.28 g/m*3 20.3 C 0 km/h
191 11-06-2011 14:12:02 23.7 C 5.13 g/m*3 23.7 C 0 km/h
192 11-06-2011 14:24:01 20.8 C 4.89 g/m*3 20.8 C 0 km/h
193 11-06-2011 14:36:02 19.8 C 4.95 g/m*3 19.8 C 0 km/h
194 11-06-2011 14:48:02 21.7 C 4.77 g/m*3 21.7 C 0 km/h
195 11-06-2011 15:00:02 25.9 C 4.84 g/m*3 25.9 C 0 km/h
196 11-06-2011 15:12:02 27.5 C 5.29 g/m*3 27.5 C 0 km/h
197 11-06-2011 15:24:02 27.6 C 5.32 g/m*3 27.6 C 0 km/h
198 11-06-2011 15:36:02 22.5 C 3.99 g/m*3 22.5 C 0 km/h
199 11-06-2011 15:48:02 27.4 C 5.26 g/m*3 27.4 C 0 km/h
200 11-06-2011 16:00:02 26.3 C 4.95 g/m*3 26.3 C 0 km/h
Sensor: Nr:Datum:Temp:Abs-Feuchte:Windchill:Wind:
Aussen-T/F 201 11-06-2011 16:12:02 22.7 C 4.04 g/m*3 22.7 C 0 km/h
202 11-06-2011 16:24:02 25.5 C 4.73 g/m*3 25.5 C 0 km/h
203 11-06-2011 16:36:01 25.5 C 4.73 g/m*3 25.5 C 0 km/h
204 11-06-2011 16:48:02 25.5 C 4.73 g/m*3 25.5 C 0 km/h
205 11-06-2011 17:00:02 25.5 C 4.73 g/m*3 25.5 C 0 km/h
206 11-06-2011 17:12:01 25.5 C 4.73 g/m*3 25.5 C 0 km/h
207 11-06-2011 17:24:01 25.5 C 4.73 g/m*3 25.5 C 0 km/h
208 11-06-2011 17:36:01 25.5 C 4.73 g/m*3 25.5 C 0 km/h
209 11-06-2011 17:48:02 25.5 C 4.73 g/m*3 25.5 C 0 km/h
210 11-06-2011 18:00:03 25.5 C 4.73 g/m*3 25.5 C 0 km/h
211 11-06-2011 18:12:02 25.5 C 4.73 g/m*3 25.5 C 0 km/h
212 11-06-2011 18:24:02 25.5 C 4.73 g/m*3 25.5 C 0 km/h
213 11-06-2011 18:36:02 23.6 C 4.89 g/m*3 23.6 C 0 km/h
214 11-06-2011 18:48:01 23.6 C 4.89 g/m*3 23.6 C 0 km/h
215 11-06-2011 19:00:01 22.1 C 5.27 g/m*3 22.1 C 0 km/h
216 11-06-2011 19:12:02 18.9 C 5.51 g/m*3 18.9 C 0 km/h
217 11-06-2011 19:24:01 18.9 C 5.51 g/m*3 18.9 C 0 km/h
218 11-06-2011 19:36:02 18 C 7.22 g/m*3 18 C 0 km/h
219 11-06-2011 19:48:01 17.6 C 7.8 g/m*3 17.6 C 0 km/h
220 11-06-2011 20:00:01 16.8 C 7.72 g/m*3 16.8 C 0 km/h
221 11-06-2011 20:12:02 16.6 C 7.63 g/m*3 16.6 C 0 km/h
222 11-06-2011 20:24:01 16.2 C 7.86 g/m*3 16.2 C 0 km/h
223 11-06-2011 20:36:02 15.7 C 8.16 g/m*3 15.7 C 0 km/h
224 11-06-2011 20:48:01 15.4 C 7.88 g/m*3 15.4 C 0 km/h
225 11-06-2011 21:00:01 15 C 7.82 g/m*3 15 C 0 km/h
Sensor: Nr:Datum:Temp:Abs-Feuchte:Windchill:Wind:
Aussen-T/F 226 11-06-2011 21:12:02 15.8 C 6.6 g/m*3 15.8 C 0 km/h
227 11-06-2011 21:24:01 15.7 C 6.69 g/m*3 15.7 C 0 km/h
228 11-06-2011 21:36:01 15.2 C 6.88 g/m*3 15.2 C 0 km/h
229 11-06-2011 21:48:01 14.9 C 6.88 g/m*3 14.9 C 0 km/h
230 11-06-2011 22:00:01 14.5 C 6.84 g/m*3 14.5 C 0 km/h
231 11-06-2011 22:12:02 14.1 C 7.28 g/m*3 14.1 C 0 km/h
232 11-06-2011 22:24:02 13.6 C 7.41 g/m*3 13.6 C 0 km/h
233 11-06-2011 22:36:01 12.8 C 7.39 g/m*3 12.8 C 0 km/h
234 11-06-2011 22:49:03 12.4 C 7.54 g/m*3 12.4 C 0 km/h
235 11-06-2011 23:01:03 12.4 C 7.43 g/m*3 12.4 C 0 km/h
236 11-06-2011 23:13:03 12.2 C 7.34 g/m*3 12.2 C 0 km/h
237 11-06-2011 23:25:03 12.1 C 7.4 g/m*3 12.1 C 0 km/h
238 11-06-2011 23:37:04 11.7 C 7.64 g/m*3 11.7 C 0 km/h
239 11-06-2011 23:49:04 11.1 C 7.45 g/m*3 11.1 C 0 km/h

Legende:
   Min
   Max


Maximal/Minimal-Werte vom 10.06.2011 - 11.06.2011

Sensor Min Max Avg
Temp
(Aussen-T/F)
10 °C
11-06-2011  07:24:05
27.6 °C
10-06-2011  16:47:03
15.33 °C
Abs-Feuchte
(Aussen-T/F)
3.99 g/m*3
11-06-2011  15:36:02
9.46 g/m*3
10-06-2011  07:23:02
7.79 g/m*3
Windchill
(Aussen-T/F)
10 C
11-06-2011  07:24:05
27.6 C
10-06-2011  16:47:03
15.26 C

Die Daten stammen von einer Davis Vantage Pro 2 Wetter-Station und werden unter Linux mit der Software wview2wettercgi und aufbereitet. Alle Angaben erfolgen ohne Gewähr für ihre Vollständigkeit oder Richtigkeit.
Kontakt: Rainer Krienke krienke@uni-koblenz.de . Meine Webseiten an der Uni Koblenz oder privat.
Version: $Revision: 0.78 $